Milo, Arkansas
Current Conditions -  °F | °C
As of 5:35 AM on Saturday 22 Nov 2014 (Local Time) from KBQP Reporting Station
Drizzle Drizzle  
Wind Chill: 54°   Ceiling: 9500
Heat Index: 54°   Visibility: 10mi
Dew Point: 51°   Wind: 5mph
Humidity: 89%   Direction: 80°E
Pressure: 30.24"   Gusts: NA
Location:  33.1762°N, 91.7595°W
Report Text: KBQP 221135Z AUTO 08004KT 10SM -DZ SCT075 BKN095 OVC120 12/11 A3024 RMK AO2 LTG DSNT W AND NW P0001 T01230105
Loading
Personal Weather Stations






























Interactive Weather Map New forecast layout! Learn more

10-Day Weather Forecast

Advertisements
Track Severe Weather on mobile